sensor_id;sensor_type;location;lat;lon;timestamp;pressure;altitude;pressure_sealevel;temperature;humidity
68889;BME280;55930;47.412;8.790;2023-06-22T00:01:12;94514.22;;;19.07;100.00
68889;BME280;55930;47.412;8.790;2023-06-22T00:04:32;94512.34;;;18.89;100.00
68889;BME280;55930;47.412;8.790;2023-06-22T00:07:55;94512.94;;;18.82;100.00
68889;BME280;55930;47.412;8.790;2023-06-22T00:11:15;94510.13;;;18.55;100.00
68889;BME280;55930;47.412;8.790;2023-06-22T00:14:36;94509.59;;;18.44;100.00
68889;BME280;55930;47.412;8.790;2023-06-22T00:17:59;94499.94;;;18.35;100.00
68889;BME280;55930;47.412;8.790;2023-06-22T00:21:22;94503.44;;;18.11;100.00
68889;BME280;55930;47.412;8.790;2023-06-22T00:24:45;94512.44;;;18.14;100.00
68889;BME280;55930;47.412;8.790;2023-06-22T00:28:06;94509.81;;;18.08;100.00
68889;BME280;55930;47.412;8.790;2023-06-22T00:31:27;94509.09;;;18.08;100.00
68889;BME280;55930;47.412;8.790;2023-06-22T00:34:48;94505.19;;;18.09;100.00
68889;BME280;55930;47.412;8.790;2023-06-22T00:38:08;94490.25;;;17.94;100.00
68889;BME280;55930;47.412;8.790;2023-06-22T00:41:29;94504.94;;;17.88;100.00
68889;BME280;55930;47.412;8.790;2023-06-22T00:44:49;94503.44;;;17.92;100.00
68889;BME280;55930;47.412;8.790;2023-06-22T00:48:09;94501.19;;;17.96;100.00
68889;BME280;55930;47.412;8.790;2023-06-22T00:51:30;94498.19;;;17.81;100.00
68889;BME280;55930;47.412;8.790;2023-06-22T00:54:51;94506.41;;;17.70;100.00
68889;BME280;55930;47.412;8.790;2023-06-22T00:58:12;94507.56;;;17.93;100.00
68889;BME280;55930;47.412;8.790;2023-06-22T01:01:33;94514.25;;;18.06;100.00
68889;BME280;55930;47.412;8.790;2023-06-22T01:04:54;94504.16;;;17.74;100.00
68889;BME280;55930;47.412;8.790;2023-06-22T01:09:05;94518.69;;;17.60;100.00
68889;BME280;55930;47.412;8.790;2023-06-22T01:12:22;94514.88;;;17.74;100.00
68889;BME280;55930;47.412;8.790;2023-06-22T01:15:50;94525.09;;;17.76;100.00
68889;BME280;55930;47.412;8.790;2023-06-22T01:26:22;94525.03;;;17.57;100.00
68889;BME280;55930;47.412;8.790;2023-06-22T01:29:51;94520.19;;;17.55;100.00
68889;BME280;55930;47.412;8.790;2023-06-22T01:33:15;94529.53;;;17.49;100.00
68889;BME280;55930;47.412;8.790;2023-06-22T01:36:38;94533.53;;;17.61;100.00
68889;BME280;55930;47.412;8.790;2023-06-22T01:39:59;94536.47;;;17.63;100.00
68889;BME280;55930;47.412;8.790;2023-06-22T01:43:21;94534.53;;;17.58;100.00
68889;BME280;55930;47.412;8.790;2023-06-22T01:46:49;94531.63;;;17.62;100.00
68889;BME280;55930;47.412;8.790;2023-06-22T01:50:11;94539.75;;;17.50;100.00
68889;BME280;55930;47.412;8.790;2023-06-22T01:53:32;94547.13;;;17.20;100.00
68889;BME280;55930;47.412;8.790;2023-06-22T01:56:52;94549.31;;;17.46;100.00
68889;BME280;55930;47.412;8.790;2023-06-22T02:00:18;94562.06;;;17.40;100.00
68889;BME280;55930;47.412;8.790;2023-06-22T02:03:48;94568.84;;;17.41;100.00
68889;BME280;55930;47.412;8.790;2023-06-22T02:07:14;94568.13;;;17.40;100.00
68889;BME280;55930;47.412;8.790;2023-06-22T02:10:38;94565.63;;;17.48;100.00
68889;BME280;55930;47.412;8.790;2023-06-22T02:14:01;94553.31;;;17.34;100.00
68889;BME280;55930;47.412;8.790;2023-06-22T02:17:21;94543.06;;;17.38;100.00
68889;BME280;55930;47.412;8.790;2023-06-22T02:20:43;94546.84;;;17.24;100.00
68889;BME280;55930;47.412;8.790;2023-06-22T02:24:04;94548.53;;;17.27;100.00
68889;BME280;55930;47.412;8.790;2023-06-22T02:27:26;94558.84;;;17.17;100.00
68889;BME280;55930;47.412;8.790;2023-06-22T02:30:47;94547.63;;;17.18;100.00
68889;BME280;55930;47.412;8.790;2023-06-22T02:34:07;94543.31;;;17.10;100.00
68889;BME280;55930;47.412;8.790;2023-06-22T02:37:27;94544.53;;;17.09;100.00
68889;BME280;55930;47.412;8.790;2023-06-22T02:40:50;94531.66;;;17.07;100.00
68889;BME280;55930;47.412;8.790;2023-06-22T02:44:10;94547.03;;;17.01;100.00
68889;BME280;55930;47.412;8.790;2023-06-22T02:47:31;94548.00;;;17.04;100.00
68889;BME280;55930;47.412;8.790;2023-06-22T02:50:51;94527.78;;;17.03;100.00
68889;BME280;55930;47.412;8.790;2023-06-22T02:54:12;94531.84;;;17.09;100.00
68889;BME280;55930;47.412;8.790;2023-06-22T02:57:32;94529.41;;;17.11;100.00
68889;BME280;55930;47.412;8.790;2023-06-22T03:00:52;94532.19;;;17.25;100.00
68889;BME280;55930;47.412;8.790;2023-06-22T03:04:13;94518.97;;;17.08;100.00
68889;BME280;55930;47.412;8.790;2023-06-22T03:07:33;94535.72;;;17.14;100.00
68889;BME280;55930;47.412;8.790;2023-06-22T03:10:54;94526.31;;;17.02;100.00
68889;BME280;55930;47.412;8.790;2023-06-22T03:14:14;94527.09;;;16.97;100.00
68889;BME280;55930;47.412;8.790;2023-06-22T03:17:35;94545.00;;;16.83;100.00
68889;BME280;55930;47.412;8.790;2023-06-22T03:20:55;94534.00;;;16.87;100.00
68889;BME280;55930;47.412;8.790;2023-06-22T03:24:16;94521.25;;;16.98;100.00
68889;BME280;55930;47.412;8.790;2023-06-22T03:27:36;94521.06;;;16.91;100.00
68889;BME280;55930;47.412;8.790;2023-06-22T03:30:57;94532.66;;;17.04;100.00
68889;BME280;55930;47.412;8.790;2023-06-22T03:34:18;94534.28;;;16.83;100.00
68889;BME280;55930;47.412;8.790;2023-06-22T03:37:39;94514.75;;;16.88;100.00
68889;BME280;55930;47.412;8.790;2023-06-22T03:41:02;94531.97;;;16.98;100.00
68889;BME280;55930;47.412;8.790;2023-06-22T03:44:22;94516.81;;;17.01;100.00
68889;BME280;55930;47.412;8.790;2023-06-22T03:47:42;94518.97;;;17.08;100.00
68889;BME280;55930;47.412;8.790;2023-06-22T03:51:03;94517.84;;;16.98;100.00
68889;BME280;55930;47.412;8.790;2023-06-22T03:54:23;94500.09;;;17.19;100.00
68889;BME280;55930;47.412;8.790;2023-06-22T03:57:43;94517.19;;;16.86;100.00
68889;BME280;55930;47.412;8.790;2023-06-22T04:01:04;94492.31;;;16.91;100.00
68889;BME280;55930;47.412;8.790;2023-06-22T04:04:26;94495.28;;;17.12;100.00
68889;BME280;55930;47.412;8.790;2023-06-22T04:07:47;94500.38;;;17.15;100.00
68889;BME280;55930;47.412;8.790;2023-06-22T04:11:08;94499.53;;;17.26;100.00
68889;BME280;55930;47.412;8.790;2023-06-22T04:14:28;94496.56;;;17.30;100.00
68889;BME280;55930;47.412;8.790;2023-06-22T04:17:48;94497.84;;;17.47;100.00
68889;BME280;55930;47.412;8.790;2023-06-22T04:21:10;94484.41;;;17.29;100.00
68889;BME280;55930;47.412;8.790;2023-06-22T04:24:30;94484.81;;;17.57;100.00
68889;BME280;55930;47.412;8.790;2023-06-22T04:27:51;94495.38;;;17.74;100.00
68889;BME280;55930;47.412;8.790;2023-06-22T04:31:11;94490.94;;;17.76;100.00
68889;BME280;55930;47.412;8.790;2023-06-22T04:34:34;94488.63;;;17.43;100.00
68889;BME280;55930;47.412;8.790;2023-06-22T04:37:58;94489.59;;;17.45;100.00
68889;BME280;55930;47.412;8.790;2023-06-22T04:41:19;94485.53;;;17.57;100.00
68889;BME280;55930;47.412;8.790;2023-06-22T04:44:43;94493.16;;;17.53;100.00
68889;BME280;55930;47.412;8.790;2023-06-22T04:48:06;94493.25;;;17.67;100.00
68889;BME280;55930;47.412;8.790;2023-06-22T04:51:26;94494.75;;;17.86;100.00
68889;BME280;55930;47.412;8.790;2023-06-22T04:54:51;94474.69;;;18.25;100.00
68889;BME280;55930;47.412;8.790;2023-06-22T04:58:15;94486.47;;;18.54;100.00
68889;BME280;55930;47.412;8.790;2023-06-22T05:01:35;94483.31;;;18.68;100.00
68889;BME280;55930;47.412;8.790;2023-06-22T05:04:58;94472.78;;;18.70;100.00
68889;BME280;55930;47.412;8.790;2023-06-22T05:08:19;94475.78;;;18.67;100.00
68889;BME280;55930;47.412;8.790;2023-06-22T05:11:39;94469.81;;;18.74;100.00
68889;BME280;55930;47.412;8.790;2023-06-22T05:14:59;94479.00;;;18.47;100.00
68889;BME280;55930;47.412;8.790;2023-06-22T05:18:21;94462.16;;;18.46;100.00
68889;BME280;55930;47.412;8.790;2023-06-22T05:21:43;94454.44;;;18.88;100.00
68889;BME280;55930;47.412;8.790;2023-06-22T05:25:05;94460.81;;;18.85;100.00
68889;BME280;55930;47.412;8.790;2023-06-22T05:28:26;94465.91;;;19.01;100.00
68889;BME280;55930;47.412;8.790;2023-06-22T05:31:49;94463.84;;;19.34;100.00
68889;BME280;55930;47.412;8.790;2023-06-22T05:35:09;94469.31;;;19.81;100.00
68889;BME280;55930;47.412;8.790;2023-06-22T05:38:30;94475.56;;;20.10;100.00
68889;BME280;55930;47.412;8.790;2023-06-22T05:41:52;94477.56;;;19.96;100.00
68889;BME280;55930;47.412;8.790;2023-06-22T05:45:13;94466.06;;;20.30;100.00
68889;BME280;55930;47.412;8.790;2023-06-22T05:48:33;94466.56;;;20.07;100.00
68889;BME280;55930;47.412;8.790;2023-06-22T05:51:53;94477.56;;;19.96;100.00
68889;BME280;55930;47.412;8.790;2023-06-22T05:55:14;94469.34;;;20.15;100.00
68889;BME280;55930;47.412;8.790;2023-06-22T05:58:38;94476.38;;;20.73;100.00
68889;BME280;55930;47.412;8.790;2023-06-22T06:01:58;94472.06;;;21.19;100.00
68889;BME280;55930;47.412;8.790;2023-06-22T06:05:18;94471.19;;;21.24;100.00
68889;BME280;55930;47.412;8.790;2023-06-22T06:08:39;94462.88;;;21.50;100.00
68889;BME280;55930;47.412;8.790;2023-06-22T06:12:02;94475.19;;;22.02;100.00
68889;BME280;55930;47.412;8.790;2023-06-22T06:15:23;94481.75;;;22.37;100.00
68889;BME280;55930;47.412;8.790;2023-06-22T06:18:43;94476.97;;;22.89;100.00
68889;BME280;55930;47.412;8.790;2023-06-22T06:22:04;94478.78;;;23.02;100.00
68889;BME280;55930;47.412;8.790;2023-06-22T06:25:24;94481.47;;;22.86;100.00
68889;BME280;55930;47.412;8.790;2023-06-22T06:28:47;94488.50;;;23.12;100.00
68889;BME280;55930;47.412;8.790;2023-06-22T06:32:08;94488.13;;;23.54;100.00
68889;BME280;55930;47.412;8.790;2023-06-22T06:35:28;94486.28;;;23.56;100.00
68889;BME280;55930;47.412;8.790;2023-06-22T06:38:49;94495.22;;;23.89;100.00
68889;BME280;55930;47.412;8.790;2023-06-22T06:42:09;94495.41;;;23.91;100.00
68889;BME280;55930;47.412;8.790;2023-06-22T06:45:31;94497.78;;;24.20;100.00
68889;BME280;55930;47.412;8.790;2023-06-22T06:48:53;94510.16;;;24.78;94.61
68889;BME280;55930;47.412;8.790;2023-06-22T06:52:13;94513.63;;;24.71;92.73
68889;BME280;55930;47.412;8.790;2023-06-22T06:55:34;94512.53;;;24.99;93.38
68889;BME280;55930;47.412;8.790;2023-06-22T06:58:54;94511.38;;;25.51;90.84
68889;BME280;55930;47.412;8.790;2023-06-22T07:02:16;94507.19;;;24.84;91.25
68889;BME280;55930;47.412;8.790;2023-06-22T07:05:36;94504.44;;;26.10;87.01
68889;BME280;55930;47.412;8.790;2023-06-22T07:08:57;94497.97;;;26.49;86.66
68889;BME280;55930;47.412;8.790;2023-06-22T07:12:17;94513.06;;;25.99;86.84
68889;BME280;55930;47.412;8.790;2023-06-22T07:15:40;94518.31;;;27.31;78.91
68889;BME280;55930;47.412;8.790;2023-06-22T07:19:00;94519.41;;;27.64;79.08
68889;BME280;55930;47.412;8.790;2023-06-22T07:22:21;94523.50;;;27.36;78.22
68889;BME280;55930;47.412;8.790;2023-06-22T07:25:41;94527.41;;;27.53;78.29
68889;BME280;55930;47.412;8.790;2023-06-22T07:29:01;94530.13;;;26.70;81.88
68889;BME280;55930;47.412;8.790;2023-06-22T07:32:22;94548.06;;;26.12;83.47
68889;BME280;55930;47.412;8.790;2023-06-22T07:35:42;94558.81;;;26.10;84.79
68889;BME280;55930;47.412;8.790;2023-06-22T07:39:03;94590.09;;;26.01;86.36
68889;BME280;55930;47.412;8.790;2023-06-22T07:42:27;94642.84;;;25.98;88.14
68889;BME280;55930;47.412;8.790;2023-06-22T07:45:49;94626.03;;;25.25;93.19
68889;BME280;55930;47.412;8.790;2023-06-22T07:49:12;94657.75;;;24.27;100.00
68889;BME280;55930;47.412;8.790;2023-06-22T07:52:33;94700.81;;;24.00;100.00
68889;BME280;55930;47.412;8.790;2023-06-22T07:55:53;94668.81;;;23.99;100.00
68889;BME280;55930;47.412;8.790;2023-06-22T07:59:16;94682.66;;;24.56;98.99
68889;BME280;55930;47.412;8.790;2023-06-22T08:02:36;94688.13;;;24.89;97.18
68889;BME280;55930;47.412;8.790;2023-06-22T08:05:57;94683.91;;;25.03;97.78
68889;BME280;55930;47.412;8.790;2023-06-22T08:09:18;94679.63;;;25.82;90.19
68889;BME280;55930;47.412;8.790;2023-06-22T08:12:39;94678.53;;;27.06;85.35
68889;BME280;55930;47.412;8.790;2023-06-22T08:16:00;94687.72;;;27.10;82.44
68889;BME280;55930;47.412;8.790;2023-06-22T08:19:20;94673.50;;;27.65;81.16
68889;BME280;55930;47.412;8.790;2023-06-22T08:22:41;94677.00;;;27.49;80.15
68889;BME280;55930;47.412;8.790;2023-06-22T08:26:02;94674.16;;;27.83;83.44
68889;BME280;55930;47.412;8.790;2023-06-22T08:29:22;94679.66;;;26.85;81.97
68889;BME280;55930;47.412;8.790;2023-06-22T08:32:43;94659.75;;;27.10;78.63
68889;BME280;55930;47.412;8.790;2023-06-22T08:36:06;94657.56;;;28.95;73.09
68889;BME280;55930;47.412;8.790;2023-06-22T08:39:26;94652.84;;;28.76;70.97
68889;BME280;55930;47.412;8.790;2023-06-22T08:42:48;94611.47;;;28.50;70.61
68889;BME280;55930;47.412;8.790;2023-06-22T08:46:09;94613.53;;;29.00;68.62
68889;BME280;55930;47.412;8.790;2023-06-22T08:49:31;94618.09;;;29.57;67.61
68889;BME280;55930;47.412;8.790;2023-06-22T08:52:52;94621.78;;;30.57;63.95
68889;BME280;55930;47.412;8.790;2023-06-22T08:56:12;94616.47;;;29.85;66.52
68889;BME280;55930;47.412;8.790;2023-06-22T08:59:33;94624.59;;;30.04;64.60
68889;BME280;55930;47.412;8.790;2023-06-22T09:02:53;94625.31;;;30.05;60.85
68889;BME280;55930;47.412;8.790;2023-06-22T09:06:13;94614.22;;;29.82;61.58
68889;BME280;55930;47.412;8.790;2023-06-22T09:09:34;94621.00;;;29.50;63.03
68889;BME280;55930;47.412;8.790;2023-06-22T09:12:58;94619.34;;;28.85;65.40
68889;BME280;55930;47.412;8.790;2023-06-22T09:16:18;94615.91;;;29.65;62.68
68889;BME280;55930;47.412;8.790;2023-06-22T09:19:39;94605.22;;;29.69;62.65
68889;BME280;55930;47.412;8.790;2023-06-22T09:23:01;94618.06;;;30.31;61.72
68889;BME280;55930;47.412;8.790;2023-06-22T09:26:22;94605.00;;;31.42;57.70
68889;BME280;55930;47.412;8.790;2023-06-22T09:29:43;94596.78;;;32.25;52.79
68889;BME280;55930;47.412;8.790;2023-06-22T09:33:04;94588.88;;;32.57;52.77
68889;BME280;55930;47.412;8.790;2023-06-22T09:36:24;94591.97;;;32.38;52.15
68889;BME280;55930;47.412;8.790;2023-06-22T09:39:45;94582.81;;;31.84;49.23
68889;BME280;55930;47.412;8.790;2023-06-22T09:43:05;94578.84;;;32.36;48.07
68889;BME280;55930;47.412;8.790;2023-06-22T09:46:25;94575.25;;;33.37;45.42
68889;BME280;55930;47.412;8.790;2023-06-22T09:49:46;94571.00;;;33.34;45.23
68889;BME280;55930;47.412;8.790;2023-06-22T09:53:06;94551.78;;;32.95;45.49
68889;BME280;55930;47.412;8.790;2023-06-22T09:56:26;94553.97;;;34.96;41.99
68889;BME280;55930;47.412;8.790;2023-06-22T09:59:48;94554.34;;;35.36;39.79
68889;BME280;55930;47.412;8.790;2023-06-22T10:03:08;94540.63;;;34.45;40.42
68889;BME280;55930;47.412;8.790;2023-06-22T10:06:29;94534.59;;;34.94;39.54
68889;BME280;55930;47.412;8.790;2023-06-22T10:09:49;94516.88;;;33.25;39.26
68889;BME280;55930;47.412;8.790;2023-06-22T10:13:12;94504.09;;;33.86;38.68
68889;BME280;55930;47.412;8.790;2023-06-22T10:16:33;94508.00;;;32.09;41.71
68889;BME280;55930;47.412;8.790;2023-06-22T10:19:55;94512.50;;;31.42;43.09
68889;BME280;55930;47.412;8.790;2023-06-22T10:23:16;94508.59;;;31.10;45.16
68889;BME280;55930;47.412;8.790;2023-06-22T10:26:36;94512.25;;;31.50;46.54
68889;BME280;55930;47.412;8.790;2023-06-22T10:29:57;94509.41;;;30.33;46.99
68889;BME280;55930;47.412;8.790;2023-06-22T10:33:19;94512.31;;;30.14;48.20
68889;BME280;55930;47.412;8.790;2023-06-22T10:36:40;94509.97;;;30.65;47.71
68889;BME280;55930;47.412;8.790;2023-06-22T10:40:01;94509.81;;;30.51;46.38
68889;BME280;55930;47.412;8.790;2023-06-22T10:43:21;94526.19;;;30.72;48.41
68889;BME280;55930;47.412;8.790;2023-06-22T10:46:44;94515.31;;;30.18;47.89
68889;BME280;55930;47.412;8.790;2023-06-22T10:50:05;94494.25;;;30.65;48.28
68889;BME280;55930;47.412;8.790;2023-06-22T10:53:25;94502.97;;;32.17;44.39
68889;BME280;55930;47.412;8.790;2023-06-22T10:56:46;94499.31;;;31.76;44.12
68889;BME280;55930;47.412;8.790;2023-06-22T11:00:07;94499.38;;;31.89;45.87
68889;BME280;55930;47.412;8.790;2023-06-22T11:03:29;94500.44;;;31.96;46.78
68889;BME280;55930;47.412;8.790;2023-06-22T11:06:49;94504.22;;;32.03;43.72
68889;BME280;55930;47.412;8.790;2023-06-22T11:10:10;94514.78;;;31.23;45.55
68889;BME280;55930;47.412;8.790;2023-06-22T11:13:31;94513.47;;;31.35;48.27
68889;BME280;55930;47.412;8.790;2023-06-22T11:16:51;94512.56;;;31.56;49.68
68889;BME280;55930;47.412;8.790;2023-06-22T11:20:12;94522.78;;;31.18;49.46
68889;BME280;55930;47.412;8.790;2023-06-22T11:23:32;94515.59;;;31.25;55.37
68889;BME280;55930;47.412;8.790;2023-06-22T11:26:52;94534.44;;;30.96;53.76
68889;BME280;55930;47.412;8.790;2023-06-22T11:30:13;94528.59;;;31.25;55.13
68889;BME280;55930;47.412;8.790;2023-06-22T11:33:33;94541.81;;;31.40;51.59
68889;BME280;55930;47.412;8.790;2023-06-22T11:36:56;94536.00;;;31.34;57.33
68889;BME280;55930;47.412;8.790;2023-06-22T11:40:17;94536.69;;;31.23;53.24
68889;BME280;55930;47.412;8.790;2023-06-22T11:43:37;94540.72;;;30.98;52.96
68889;BME280;55930;47.412;8.790;2023-06-22T11:46:58;94542.66;;;31.31;49.75
68889;BME280;55930;47.412;8.790;2023-06-22T11:50:20;94529.53;;;31.52;50.62
68889;BME280;55930;47.412;8.790;2023-06-22T11:53:43;94526.28;;;32.16;52.64
68889;BME280;55930;47.412;8.790;2023-06-22T11:57:04;94530.78;;;33.97;45.81
68889;BME280;55930;47.412;8.790;2023-06-22T12:00:26;94541.84;;;33.84;46.12
68889;BME280;55930;47.412;8.790;2023-06-22T12:03:47;94541.28;;;31.90;48.35
68889;BME280;55930;47.412;8.790;2023-06-22T12:07:08;94546.25;;;31.45;48.94
68889;BME280;55930;47.412;8.790;2023-06-22T12:10:28;94555.13;;;30.64;50.77
68889;BME280;55930;47.412;8.790;2023-06-22T12:13:49;94549.50;;;31.90;50.63
68889;BME280;55930;47.412;8.790;2023-06-22T12:17:09;94538.91;;;32.21;48.73
68889;BME280;55930;47.412;8.790;2023-06-22T12:20:30;94543.47;;;32.42;48.80
68889;BME280;55930;47.412;8.790;2023-06-22T12:23:50;94548.41;;;31.95;48.07
68889;BME280;55930;47.412;8.790;2023-06-22T12:27:11;94549.09;;;31.24;50.66
68889;BME280;55930;47.412;8.790;2023-06-22T12:30:33;94541.38;;;31.20;50.25
68889;BME280;55930;47.412;8.790;2023-06-22T12:33:53;94538.81;;;31.47;49.38
68889;BME280;55930;47.412;8.790;2023-06-22T12:37:13;94542.75;;;33.47;46.97
68889;BME280;55930;47.412;8.790;2023-06-22T12:40:34;94539.81;;;35.51;44.06
68889;BME280;55930;47.412;8.790;2023-06-22T12:43:54;94537.06;;;36.73;40.61
68889;BME280;55930;47.412;8.790;2023-06-22T12:47:15;94549.78;;;35.11;39.62
68889;BME280;55930;47.412;8.790;2023-06-22T12:50:35;94543.75;;;35.63;39.00
68889;BME280;55930;47.412;8.790;2023-06-22T12:53:58;94543.34;;;35.53;37.21
68889;BME280;55930;47.412;8.790;2023-06-22T12:57:21;94521.88;;;38.58;33.47
68889;BME280;55930;47.412;8.790;2023-06-22T13:00:44;94519.38;;;38.44;31.50
68889;BME280;55930;47.412;8.790;2023-06-22T13:04:04;94512.25;;;36.20;34.42
68889;BME280;55930;47.412;8.790;2023-06-22T13:07:25;94523.09;;;34.84;35.77
68889;BME280;55930;47.412;8.790;2023-06-22T13:10:45;94506.47;;;33.64;36.68
68889;BME280;55930;47.412;8.790;2023-06-22T13:14:06;94500.75;;;32.78;38.41
68889;BME280;55930;47.412;8.790;2023-06-22T13:17:26;94512.81;;;33.26;41.11
68889;BME280;55930;47.412;8.790;2023-06-22T13:20:49;94521.69;;;34.38;40.15
68889;BME280;55930;47.412;8.790;2023-06-22T13:24:09;94520.44;;;33.41;40.64
68889;BME280;55930;47.412;8.790;2023-06-22T13:27:30;94533.88;;;33.90;42.11
68889;BME280;55930;47.412;8.790;2023-06-22T13:30:51;94534.38;;;33.18;40.20
68889;BME280;55930;47.412;8.790;2023-06-22T13:34:11;94552.09;;;32.00;44.10
68889;BME280;55930;47.412;8.790;2023-06-22T13:37:32;94546.44;;;31.72;43.99
68889;BME280;55930;47.412;8.790;2023-06-22T13:40:53;94558.16;;;31.26;44.95
68889;BME280;55930;47.412;8.790;2023-06-22T13:44:16;94573.72;;;30.77;44.50
68889;BME280;55930;47.412;8.790;2023-06-22T13:47:37;94576.00;;;30.92;44.56
68889;BME280;55930;47.412;8.790;2023-06-22T13:50:57;94562.56;;;31.31;42.82
68889;BME280;55930;47.412;8.790;2023-06-22T13:54:17;94559.69;;;31.41;41.02
68889;BME280;55930;47.412;8.790;2023-06-22T13:57:38;94568.94;;;30.33;41.37
68889;BME280;55930;47.412;8.790;2023-06-22T14:00:58;94561.66;;;30.04;43.43
68889;BME280;55930;47.412;8.790;2023-06-22T14:04:19;94559.66;;;30.05;42.32
68889;BME280;55930;47.412;8.790;2023-06-22T14:07:39;94565.19;;;29.74;43.63
68889;BME280;55930;47.412;8.790;2023-06-22T14:11:02;94575.69;;;30.53;42.74
68889;BME280;55930;47.412;8.790;2023-06-22T14:14:22;94567.19;;;29.74;44.37
68889;BME280;55930;47.412;8.790;2023-06-22T14:17:43;94566.19;;;28.76;45.41
68889;BME280;55930;47.412;8.790;2023-06-22T14:21:03;94576.34;;;28.95;45.25
68889;BME280;55930;47.412;8.790;2023-06-22T14:24:23;94581.00;;;29.14;46.60
68889;BME280;55930;47.412;8.790;2023-06-22T14:27:44;94557.69;;;29.75;43.81
68889;BME280;55930;47.412;8.790;2023-06-22T14:31:04;94562.09;;;30.22;43.02
68889;BME280;55930;47.412;8.790;2023-06-22T14:34:25;94558.13;;;30.79;42.04
68889;BME280;55930;47.412;8.790;2023-06-22T14:37:45;94531.84;;;30.20;41.54
68889;BME280;55930;47.412;8.790;2023-06-22T14:41:05;94523.19;;;31.62;40.12
68889;BME280;55930;47.412;8.790;2023-06-22T14:44:26;94513.13;;;29.62;43.46
68889;BME280;55930;47.412;8.790;2023-06-22T14:47:49;94514.91;;;29.58;44.43
68889;BME280;55930;47.412;8.790;2023-06-22T14:51:10;94508.28;;;29.61;45.04
68889;BME280;55930;47.412;8.790;2023-06-22T14:54:30;94514.31;;;29.38;43.70
68889;BME280;55930;47.412;8.790;2023-06-22T14:57:51;94506.44;;;29.96;45.82
68889;BME280;55930;47.412;8.790;2023-06-22T15:01:11;94502.41;;;30.42;43.02
68889;BME280;55930;47.412;8.790;2023-06-22T15:04:32;94510.22;;;30.69;45.99
68889;BME280;55930;47.412;8.790;2023-06-22T15:07:55;94502.97;;;29.75;46.47
68889;BME280;55930;47.412;8.790;2023-06-22T15:11:15;94497.16;;;30.01;46.28
68889;BME280;55930;47.412;8.790;2023-06-22T15:14:35;94500.03;;;29.82;48.30
68889;BME280;55930;47.412;8.790;2023-06-22T15:17:56;94510.72;;;29.78;47.33
68889;BME280;55930;47.412;8.790;2023-06-22T15:21:16;94513.84;;;29.63;50.04
68889;BME280;55930;47.412;8.790;2023-06-22T15:24:37;94522.19;;;29.13;49.70
68889;BME280;55930;47.412;8.790;2023-06-22T15:27:57;94514.69;;;28.32;52.39
68889;BME280;55930;47.412;8.790;2023-06-22T15:31:17;94514.53;;;28.30;52.88
68889;BME280;55930;47.412;8.790;2023-06-22T15:34:38;94527.31;;;27.60;55.20
68889;BME280;55930;47.412;8.790;2023-06-22T15:37:58;94534.19;;;27.80;55.35
68889;BME280;55930;47.412;8.790;2023-06-22T15:41:19;94524.72;;;27.72;57.43
68889;BME280;55930;47.412;8.790;2023-06-22T15:44:40;94519.34;;;27.35;56.08
68889;BME280;55930;47.412;8.790;2023-06-22T15:48:02;94516.09;;;27.00;58.30
68889;BME280;55930;47.412;8.790;2023-06-22T15:51:23;94520.72;;;26.81;61.24
68889;BME280;55930;47.412;8.790;2023-06-22T15:54:46;94538.72;;;26.40;61.61
68889;BME280;55930;47.412;8.790;2023-06-22T15:58:07;94536.81;;;26.33;63.76
68889;BME280;55930;47.412;8.790;2023-06-22T16:01:29;94551.38;;;25.93;65.14
68889;BME280;55930;47.412;8.790;2023-06-22T16:04:49;94551.53;;;25.78;68.24
68889;BME280;55930;47.412;8.790;2023-06-22T16:08:11;94546.44;;;25.57;67.17
68889;BME280;55930;47.412;8.790;2023-06-22T16:11:31;94564.72;;;25.39;70.61
68889;BME280;55930;47.412;8.790;2023-06-22T16:14:54;94557.78;;;25.04;74.47
68889;BME280;55930;47.412;8.790;2023-06-22T16:18:15;94555.47;;;24.93;72.23
68889;BME280;55930;47.412;8.790;2023-06-22T16:21:36;94564.41;;;24.78;75.98
68889;BME280;55930;47.412;8.790;2023-06-22T16:24:58;94561.88;;;24.00;80.91
68889;BME280;55930;47.412;8.790;2023-06-22T16:28:19;94571.97;;;23.99;84.17
68889;BME280;55930;47.412;8.790;2023-06-22T16:31:39;94594.59;;;23.26;90.91
68889;BME280;55930;47.412;8.790;2023-06-22T16:34:59;94619.88;;;23.13;95.74
68889;BME280;55930;47.412;8.790;2023-06-22T16:38:20;94608.50;;;22.48;100.00
68889;BME280;55930;47.412;8.790;2023-06-22T16:41:41;94628.81;;;22.34;100.00
68889;BME280;55930;47.412;8.790;2023-06-22T16:45:02;94628.53;;;21.89;100.00
68889;BME280;55930;47.412;8.790;2023-06-22T16:48:23;94627.53;;;21.71;100.00
68889;BME280;55930;47.412;8.790;2023-06-22T16:51:44;94615.59;;;21.38;100.00
68889;BME280;55930;47.412;8.790;2023-06-22T16:55:09;94599.41;;;21.38;100.00
68889;BME280;55930;47.412;8.790;2023-06-22T16:58:30;94533.88;;;21.66;100.00
68889;BME280;55930;47.412;8.790;2023-06-22T17:01:55;94406.66;;;21.05;100.00
68889;BME280;55930;47.412;8.790;2023-06-22T17:05:17;94362.75;;;20.69;100.00
68889;BME280;55930;47.412;8.790;2023-06-22T17:08:39;94438.88;;;20.61;100.00
68889;BME280;55930;47.412;8.790;2023-06-22T17:12:00;94508.53;;;20.50;100.00
68889;BME280;55930;47.412;8.790;2023-06-22T17:15:22;94482.44;;;20.66;100.00
68889;BME280;55930;47.412;8.790;2023-06-22T17:18:42;94480.53;;;20.74;100.00
68889;BME280;55930;47.412;8.790;2023-06-22T17:22:03;94508.09;;;20.46;100.00
68889;BME280;55930;47.412;8.790;2023-06-22T17:25:24;94500.16;;;20.40;100.00
68889;BME280;55930;47.412;8.790;2023-06-22T17:28:53;94505.31;;;20.72;100.00
68889;BME280;55930;47.412;8.790;2023-06-22T17:32:21;94508.53;;;20.71;100.00
68889;BME280;55930;47.412;8.790;2023-06-22T17:35:46;94529.38;;;20.70;100.00
68889;BME280;55930;47.412;8.790;2023-06-22T17:39:10;94539.31;;;20.75;100.00
68889;BME280;55930;47.412;8.790;2023-06-22T17:42:30;94553.34;;;20.60;100.00
68889;BME280;55930;47.412;8.790;2023-06-22T17:45:51;94584.28;;;20.46;100.00